createdAt,value
2019-03-31T00:03:31.769Z,3.10
2019-03-31T00:07:39.125Z,2.90
2019-03-31T00:11:46.512Z,2.90
2019-03-31T00:15:54.624Z,2.90
2019-03-31T00:20:02.161Z,2.80
2019-03-31T00:24:08.445Z,2.70
2019-03-31T00:28:14.179Z,2.70
2019-03-31T00:32:21.018Z,2.70
2019-03-31T00:36:27.522Z,2.60
2019-03-31T00:40:38.530Z,2.50
2019-03-31T00:44:46.687Z,2.60
2019-03-31T00:48:55.802Z,2.50
2019-03-31T00:53:03.433Z,2.50
2019-03-31T00:57:11.376Z,2.40
2019-03-31T01:01:48.128Z,2.40
2019-03-31T01:05:54.715Z,2.40
2019-03-31T01:10:01.592Z,2.40
2019-03-31T01:14:07.274Z,2.30
2019-03-31T01:18:16.214Z,2.30
2019-03-31T01:22:24.454Z,2.20
2019-03-31T01:26:30.742Z,2.20
2019-03-31T01:30:38.679Z,2.20
2019-03-31T01:34:45.604Z,2.10
2019-03-31T01:38:51.949Z,2.00
2019-03-31T01:42:58.317Z,2.00
2019-03-31T01:47:06.283Z,2.00
2019-03-31T01:51:14.991Z,1.90
2019-03-31T01:55:22.185Z,1.80
2019-03-31T01:59:29.150Z,1.80
2019-03-31T02:03:36.728Z,1.70
2019-03-31T02:07:43.747Z,1.70
2019-03-31T02:11:50.357Z,1.60
2019-03-31T02:15:57.552Z,1.60
2019-03-31T02:20:03.507Z,1.60
2019-03-31T02:24:09.178Z,1.50
2019-03-31T02:28:15.705Z,1.50
2019-03-31T02:32:24.471Z,1.50
2019-03-31T02:36:30.824Z,1.50
2019-03-31T02:40:37.777Z,1.40
2019-03-31T02:45:12.599Z,1.40
2019-03-31T02:49:18.799Z,1.40
2019-03-31T02:53:25.514Z,1.40
2019-03-31T02:57:33.186Z,1.40
2019-03-31T03:01:41.758Z,1.30
2019-03-31T03:05:50.671Z,1.30
2019-03-31T03:09:58.747Z,1.20
2019-03-31T03:14:08.604Z,1.20
2019-03-31T03:18:15.380Z,1.20
2019-03-31T03:22:21.534Z,1.10
2019-03-31T03:26:27.999Z,1.10
2019-03-31T03:30:34.038Z,1.10
2019-03-31T03:34:40.847Z,1.10
2019-03-31T03:38:47.685Z,1.00
2019-03-31T03:42:54.613Z,1.00
2019-03-31T03:47:02.631Z,0.90
2019-03-31T03:51:10.766Z,0.90
2019-03-31T03:55:17.443Z,0.90
2019-03-31T03:59:23.976Z,0.80
2019-03-31T04:03:32.043Z,0.80
2019-03-31T04:07:39.551Z,0.80
2019-03-31T04:11:46.799Z,0.70
2019-03-31T04:15:53.560Z,0.70
2019-03-31T04:20:03.379Z,0.70
2019-03-31T04:24:13.233Z,0.70
2019-03-31T04:28:22.075Z,0.60
2019-03-31T04:32:39.003Z,0.60
2019-03-31T04:36:46.099Z,0.60
2019-03-31T04:40:51.780Z,0.50
2019-03-31T04:44:58.502Z,0.50
2019-03-31T04:49:08.038Z,0.40
2019-03-31T04:53:15.006Z,0.50
2019-03-31T04:57:21.541Z,0.60
2019-03-31T05:01:28.544Z,0.60
2019-03-31T05:05:34.067Z,0.60
2019-03-31T05:09:44.914Z,0.70
2019-03-31T05:13:52.905Z,0.70
2019-03-31T05:17:58.911Z,0.70
2019-03-31T05:22:06.087Z,0.80
2019-03-31T05:26:11.534Z,0.80
2019-03-31T05:30:18.857Z,0.70
2019-03-31T05:34:25.015Z,0.80
2019-03-31T05:38:32.121Z,0.90
2019-03-31T05:42:38.446Z,1.00
2019-03-31T05:46:44.084Z,1.10
2019-03-31T05:50:49.633Z,1.30
2019-03-31T05:54:57.904Z,1.50
2019-03-31T05:59:03.398Z,1.60
2019-03-31T06:03:08.959Z,1.80
2019-03-31T06:07:16.430Z,1.90
2019-03-31T06:11:24.838Z,2.10
2019-03-31T06:15:35.020Z,2.20
2019-03-31T06:19:43.282Z,2.40
2019-03-31T06:23:50.441Z,2.60
2019-03-31T06:27:57.502Z,2.80
2019-03-31T06:32:04.956Z,3.00
2019-03-31T06:36:11.739Z,3.30
2019-03-31T06:40:19.512Z,3.60
2019-03-31T06:44:26.335Z,3.90
2019-03-31T06:48:32.433Z,4.30
2019-03-31T06:52:38.887Z,4.70
2019-03-31T06:56:47.069Z,5.10
2019-03-31T07:00:54.112Z,5.50
2019-03-31T07:05:02.021Z,5.90
2019-03-31T07:09:08.107Z,6.30
2019-03-31T07:13:13.653Z,6.90
2019-03-31T07:17:19.226Z,7.40
2019-03-31T07:21:25.077Z,8.00
2019-03-31T07:25:30.797Z,8.60
2019-03-31T07:29:36.230Z,9.30
2019-03-31T07:33:41.887Z,9.80
2019-03-31T07:37:47.963Z,10.40
2019-03-31T07:41:53.435Z,10.90
2019-03-31T07:45:59.100Z,11.40
2019-03-31T07:50:06.117Z,12.10
2019-03-31T07:54:11.627Z,12.60
2019-03-31T07:58:17.099Z,13.20
2019-03-31T08:02:22.647Z,13.60
2019-03-31T08:06:28.353Z,14.10
2019-03-31T08:10:33.786Z,14.40
2019-03-31T08:14:39.562Z,14.90
2019-03-31T08:18:45.071Z,15.40
2019-03-31T08:22:50.618Z,15.70
2019-03-31T08:26:56.446Z,16.00
2019-03-31T08:31:02.036Z,16.60
2019-03-31T08:35:09.112Z,18.20
2019-03-31T08:39:14.593Z,20.00
2019-03-31T08:43:20.136Z,21.20
2019-03-31T08:47:26.724Z,22.90
2019-03-31T08:51:32.233Z,24.10
2019-03-31T08:55:37.713Z,24.70
2019-03-31T08:59:43.300Z,24.10
2019-03-31T09:03:48.731Z,24.00
2019-03-31T09:07:54.393Z,24.40
2019-03-31T09:11:59.956Z,25.20
2019-03-31T09:16:05.393Z,25.70
2019-03-31T09:20:11.603Z,26.20
2019-03-31T09:24:17.002Z,27.20
2019-03-31T09:28:22.508Z,27.40
2019-03-31T09:32:27.992Z,27.40
2019-03-31T09:36:33.488Z,28.10
2019-03-31T09:40:38.952Z,28.10
2019-03-31T09:44:44.457Z,27.30
2019-03-31T09:48:49.889Z,26.00
2019-03-31T09:53:00.431Z,26.40
2019-03-31T09:57:06.257Z,26.70
2019-03-31T10:01:11.801Z,25.60
2019-03-31T10:05:17.942Z,25.70
2019-03-31T10:09:23.591Z,27.20
2019-03-31T10:13:31.165Z,25.60
2019-03-31T10:17:36.591Z,25.50
2019-03-31T10:21:42.158Z,26.30
2019-03-31T10:25:54.395Z,25.50
2019-03-31T10:30:00.005Z,26.60
2019-03-31T10:34:05.689Z,27.60
2019-03-31T10:38:11.209Z,27.30
2019-03-31T10:42:16.921Z,27.50
2019-03-31T10:46:22.354Z,27.60
2019-03-31T10:50:28.050Z,28.10
2019-03-31T10:54:33.497Z,27.40
2019-03-31T10:58:39.074Z,28.70
2019-03-31T11:02:44.633Z,28.80
2019-03-31T11:06:58.812Z,29.60
2019-03-31T11:10:57.533Z,29.20
2019-03-31T11:15:03.069Z,28.90
2019-03-31T11:19:08.572Z,29.20
2019-03-31T11:23:18.903Z,29.60
2019-03-31T11:27:24.318Z,28.80
2019-03-31T11:31:29.778Z,29.20
2019-03-31T11:35:35.370Z,28.90
2019-03-31T11:39:40.966Z,30.70
2019-03-31T11:43:46.459Z,30.70
2019-03-31T11:47:51.996Z,31.00
2019-03-31T11:51:57.471Z,31.80
2019-03-31T11:56:02.914Z,30.50
2019-03-31T12:00:10.771Z,31.00
2019-03-31T12:04:16.181Z,30.20
2019-03-31T12:08:21.645Z,30.20
2019-03-31T12:12:27.253Z,31.10
2019-03-31T12:16:32.701Z,30.10
2019-03-31T12:20:38.260Z,30.20
2019-03-31T12:24:43.691Z,30.90
2019-03-31T12:28:49.490Z,31.50
2019-03-31T12:32:55.240Z,33.70
2019-03-31T12:37:00.709Z,33.40
2019-03-31T12:41:06.384Z,31.90
2019-03-31T12:45:12.367Z,30.40
2019-03-31T12:49:18.067Z,31.70
2019-03-31T12:53:29.891Z,32.10
2019-03-31T12:57:35.919Z,31.90
2019-03-31T13:01:41.658Z,31.90
2019-03-31T13:05:47.077Z,32.80
2019-03-31T13:09:52.784Z,33.00
2019-03-31T13:13:58.376Z,32.70
2019-03-31T13:18:04.281Z,31.70
2019-03-31T13:22:09.915Z,31.90
2019-03-31T13:26:15.372Z,30.70
2019-03-31T13:30:22.091Z,31.10
2019-03-31T13:34:27.736Z,32.90
2019-03-31T13:38:33.169Z,34.00
2019-03-31T13:42:38.984Z,31.60
2019-03-31T13:46:44.637Z,30.50
2019-03-31T13:50:50.050Z,31.60
2019-03-31T13:54:55.606Z,31.00
2019-03-31T13:59:01.050Z,30.80
2019-03-31T14:03:06.744Z,33.00
2019-03-31T14:07:12.490Z,33.40
2019-03-31T14:11:21.464Z,32.50
2019-03-31T14:15:25.591Z,32.50
2019-03-31T14:19:31.499Z,33.20
2019-03-31T14:23:36.910Z,33.30
2019-03-31T14:27:42.546Z,32.70
2019-03-31T14:31:51.735Z,32.40
2019-03-31T14:35:55.554Z,32.40
2019-03-31T14:40:01.136Z,30.60
2019-03-31T14:44:06.760Z,31.60
2019-03-31T14:48:12.212Z,31.80
2019-03-31T14:52:27.245Z,31.30
2019-03-31T14:56:24.821Z,30.70
2019-03-31T15:00:30.377Z,28.90
2019-03-31T15:04:36.214Z,26.70
2019-03-31T15:08:53.843Z,25.00
2019-03-31T15:12:48.771Z,24.00
2019-03-31T15:16:54.278Z,23.30
2019-03-31T15:20:59.726Z,22.30
2019-03-31T15:25:05.420Z,21.40
2019-03-31T15:29:10.993Z,20.80
2019-03-31T15:33:16.877Z,20.50
2019-03-31T15:37:22.345Z,20.10
2019-03-31T15:41:28.023Z,19.90
2019-03-31T15:45:33.463Z,19.90
2019-03-31T15:49:39.102Z,19.70
2019-03-31T15:53:44.586Z,19.40
2019-03-31T15:57:50.513Z,19.30
2019-03-31T16:01:55.992Z,19.20
2019-03-31T16:06:01.503Z,19.10
2019-03-31T16:10:07.943Z,19.10
2019-03-31T16:14:13.064Z,19.00
2019-03-31T16:18:18.470Z,18.90
2019-03-31T16:22:23.990Z,18.80
2019-03-31T16:26:29.550Z,18.70
2019-03-31T16:30:35.924Z,18.40
2019-03-31T16:34:41.304Z,18.20
2019-03-31T16:38:46.847Z,18.10
2019-03-31T16:42:52.204Z,17.80
2019-03-31T16:46:57.409Z,17.60
2019-03-31T16:51:03.205Z,17.50
2019-03-31T16:55:08.530Z,17.30
2019-03-31T16:59:13.766Z,17.10
2019-03-31T17:03:19.125Z,17.00
2019-03-31T17:07:24.356Z,16.70
2019-03-31T17:11:29.732Z,16.60
2019-03-31T17:15:34.599Z,16.30
2019-03-31T17:19:39.545Z,16.10
2019-03-31T17:23:44.649Z,15.80
2019-03-31T17:27:49.517Z,15.60
2019-03-31T17:31:54.545Z,15.40
2019-03-31T17:35:59.490Z,15.10
2019-03-31T17:40:06.520Z,14.90
2019-03-31T17:44:11.641Z,14.70
2019-03-31T17:48:16.725Z,14.50
2019-03-31T17:52:21.590Z,14.30
2019-03-31T17:56:26.729Z,14.10
2019-03-31T18:00:31.619Z,13.90
2019-03-31T18:04:38.348Z,13.70
2019-03-31T18:08:43.023Z,13.40
2019-03-31T18:12:48.078Z,13.20
2019-03-31T18:16:52.982Z,13.00
2019-03-31T18:20:58.032Z,12.90
2019-03-31T18:25:02.918Z,12.80
2019-03-31T18:29:08.314Z,12.60
2019-03-31T18:33:14.266Z,12.30
2019-03-31T18:37:19.197Z,12.10
2019-03-31T18:41:25.155Z,12.00
2019-03-31T18:45:30.799Z,11.90
2019-03-31T18:49:36.437Z,11.80
2019-03-31T18:53:58.176Z,11.70
2019-03-31T18:58:13.002Z,11.70
2019-03-31T19:02:40.704Z,11.70
2019-03-31T19:12:09.990Z,11.40
2019-03-31T19:16:41.914Z,11.20
2019-03-31T19:21:11.777Z,11.10
2019-03-31T19:25:36.555Z,11.00
2019-03-31T19:30:03.343Z,11.00
2019-03-31T19:34:26.008Z,10.90
2019-03-31T19:38:48.838Z,11.00
2019-03-31T19:43:04.178Z,11.00
2019-03-31T19:47:27.613Z,11.00
2019-03-31T19:51:44.355Z,11.00
2019-03-31T19:56:07.684Z,11.10
2019-03-31T20:00:38.669Z,11.00
2019-03-31T20:05:09.199Z,11.00
2019-03-31T20:09:45.315Z,11.00
2019-03-31T20:14:21.201Z,11.00
2019-03-31T20:18:45.725Z,11.00
2019-03-31T20:23:22.627Z,11.00
2019-03-31T20:27:49.355Z,10.90
2019-03-31T20:32:19.101Z,10.90
2019-03-31T20:36:42.993Z,10.90
2019-03-31T20:40:55.560Z,10.90
2019-03-31T20:45:00.532Z,11.00
2019-03-31T20:49:05.535Z,11.00
2019-03-31T20:53:10.498Z,11.10
2019-03-31T20:57:15.423Z,11.10
2019-03-31T21:01:20.435Z,11.10
2019-03-31T21:05:25.290Z,11.10
2019-03-31T21:09:38.767Z,11.00
2019-03-31T21:13:36.857Z,10.90
2019-03-31T21:17:41.984Z,11.00
2019-03-31T21:21:46.882Z,10.90
2019-03-31T21:25:52.079Z,10.90
2019-03-31T21:29:57.030Z,10.80
2019-03-31T21:34:02.030Z,10.80
2019-03-31T21:38:06.960Z,10.80
2019-03-31T21:42:12.869Z,10.80
2019-03-31T21:46:17.921Z,10.70
2019-03-31T21:50:22.911Z,10.70
2019-03-31T21:54:27.983Z,10.70
2019-03-31T21:58:32.990Z,10.60
2019-03-31T22:02:37.934Z,10.50
2019-03-31T22:06:42.931Z,10.40
2019-03-31T22:10:48.061Z,10.30
2019-03-31T22:14:53.351Z,10.20
2019-03-31T22:18:58.334Z,10.10
2019-03-31T22:23:03.306Z,9.90
2019-03-31T22:27:08.221Z,9.70
2019-03-31T22:31:13.217Z,9.40
2019-03-31T22:35:18.162Z,9.20
2019-03-31T22:39:23.038Z,9.00
2019-03-31T22:43:28.087Z,8.70
2019-03-31T22:47:33.028Z,8.50
2019-03-31T22:51:37.939Z,8.40
2019-03-31T22:55:42.963Z,8.20
2019-03-31T22:59:47.958Z,8.10
2019-03-31T23:03:53.030Z,7.90
2019-03-31T23:07:57.945Z,7.80
2019-03-31T23:12:02.963Z,7.60
2019-03-31T23:16:07.927Z,7.50
2019-03-31T23:20:13.071Z,7.50
2019-03-31T23:24:17.964Z,7.40
2019-03-31T23:28:23.154Z,7.20
2019-03-31T23:32:28.060Z,7.20
2019-03-31T23:36:32.987Z,7.10
2019-03-31T23:40:37.838Z,7.00
2019-03-31T23:44:42.731Z,6.90
2019-03-31T23:48:47.652Z,6.80
2019-03-31T23:52:52.586Z,6.70
2019-03-31T23:56:57.466Z,6.70
